createdAt,value
2019-02-21T00:00:26.694Z,4.37
2019-02-21T00:02:58.521Z,4.37
2019-02-21T00:05:29.302Z,4.43
2019-02-21T00:07:59.554Z,4.17
2019-02-21T00:10:31.393Z,5.10
2019-02-21T00:13:02.261Z,4.30
2019-02-21T00:15:33.387Z,4.07
2019-02-21T00:18:04.429Z,4.50
2019-02-21T00:20:35.500Z,4.97
2019-02-21T00:23:05.744Z,5.03
2019-02-21T00:25:36.865Z,4.97
2019-02-21T00:28:08.275Z,4.77
2019-02-21T00:30:38.852Z,5.30
2019-02-21T00:33:09.204Z,5.00
2019-02-21T00:35:40.165Z,4.27
2019-02-21T00:38:11.123Z,5.20
2019-02-21T00:40:43.225Z,5.30
2019-02-21T00:43:13.827Z,4.77
2019-02-21T00:45:45.116Z,5.47
2019-02-21T00:48:15.718Z,5.80
2019-02-21T00:50:46.733Z,6.97
2019-02-21T00:53:17.607Z,8.33
2019-02-21T00:55:48.396Z,9.40
2019-02-21T00:58:18.625Z,9.93
2019-02-21T01:00:49.204Z,11.33
2019-02-21T01:03:20.091Z,12.40
2019-02-21T01:05:51.164Z,12.30
2019-02-21T01:08:21.743Z,13.90
2019-02-21T01:10:52.523Z,13.93
2019-02-21T01:13:22.774Z,14.83
2019-02-21T01:15:53.598Z,14.10
2019-02-21T01:18:23.828Z,14.40
2019-02-21T01:20:54.333Z,14.47
2019-02-21T01:23:24.587Z,15.60
2019-02-21T01:25:55.100Z,14.53
2019-02-21T01:28:26.123Z,15.30
2019-02-21T01:30:57.377Z,15.57
2019-02-21T01:33:27.714Z,16.17
2019-02-21T01:35:58.470Z,15.37
2019-02-21T01:38:28.755Z,17.10
2019-02-21T01:40:59.579Z,16.37
2019-02-21T01:43:29.748Z,16.60
2019-02-21T01:46:00.563Z,16.80
2019-02-21T01:48:31.136Z,17.17
2019-02-21T01:51:01.467Z,16.97
2019-02-21T01:53:32.666Z,17.43
2019-02-21T01:56:03.082Z,17.13
2019-02-21T01:58:34.715Z,17.63
2019-02-21T02:01:08.669Z,18.33
2019-02-21T02:03:37.991Z,18.87
2019-02-21T02:06:08.476Z,18.57
2019-02-21T02:08:38.813Z,18.37
2019-02-21T02:11:10.305Z,18.40
2019-02-21T02:13:40.532Z,18.57
2019-02-21T02:16:11.215Z,19.10
2019-02-21T02:18:41.515Z,17.23
2019-02-21T02:21:12.530Z,17.20
2019-02-21T02:23:42.795Z,18.83
2019-02-21T02:26:13.390Z,17.17
2019-02-21T02:28:45.250Z,18.27
2019-02-21T02:31:22.727Z,18.97
2019-02-21T02:33:47.506Z,17.87
2019-02-21T02:36:18.190Z,18.83
2019-02-21T02:38:48.476Z,19.07
2019-02-21T02:41:19.874Z,17.73
2019-02-21T02:43:50.231Z,18.10
2019-02-21T02:46:20.630Z,18.77
2019-02-21T02:48:50.876Z,17.93
2019-02-21T02:51:21.400Z,19.27
2019-02-21T02:53:52.841Z,18.63
2019-02-21T02:56:23.383Z,18.90
2019-02-21T02:58:53.658Z,18.50
2019-02-21T03:01:34.368Z,19.20
2019-02-21T03:03:57.334Z,19.83
2019-02-21T03:06:27.951Z,20.70
2019-02-21T03:08:58.188Z,19.80
2019-02-21T03:11:29.229Z,20.27
2019-02-21T03:13:59.480Z,20.67
2019-02-21T03:16:30.349Z,21.87
2019-02-21T03:19:00.663Z,22.20
2019-02-21T03:21:31.121Z,22.43
2019-02-21T03:24:01.449Z,21.40
2019-02-21T03:26:32.173Z,21.80
2019-02-21T03:29:03.848Z,21.93
2019-02-21T03:31:52.775Z,22.50
2019-02-21T03:34:06.396Z,21.20
2019-02-21T03:36:37.050Z,20.63
2019-02-21T03:39:08.787Z,21.20
2019-02-21T03:41:39.538Z,21.27
2019-02-21T03:44:09.800Z,20.47
2019-02-21T03:46:40.396Z,20.53
2019-02-21T03:49:10.645Z,21.20
2019-02-21T03:51:41.387Z,21.50
2019-02-21T03:54:11.625Z,20.13
2019-02-21T03:56:42.203Z,20.77
2019-02-21T03:59:12.504Z,19.03
2019-02-21T04:01:42.811Z,19.90
2019-02-21T04:04:13.077Z,19.97
2019-02-21T04:06:43.714Z,20.47
2019-02-21T04:09:13.903Z,20.27
2019-02-21T04:11:44.460Z,19.03
2019-02-21T04:14:14.709Z,20.00
2019-02-21T04:16:47.057Z,19.63
2019-02-21T04:19:17.304Z,19.33
2019-02-21T04:21:47.587Z,19.70
2019-02-21T04:24:18.033Z,19.90
2019-02-21T04:26:48.316Z,19.30
2019-02-21T04:29:19.707Z,19.10
2019-02-21T04:31:50.179Z,18.97
2019-02-21T04:34:20.809Z,19.50
2019-02-21T04:36:51.126Z,20.20
2019-02-21T04:39:21.392Z,20.03
2019-02-21T04:41:52.330Z,19.70
2019-02-21T04:44:22.613Z,20.43
2019-02-21T04:46:52.903Z,19.03
2019-02-21T04:49:23.362Z,21.60
2019-02-21T04:51:53.613Z,20.73
2019-02-21T04:54:23.899Z,20.37
2019-02-21T04:56:54.554Z,21.40
2019-02-21T04:59:24.800Z,20.97
2019-02-21T05:01:55.361Z,21.73
2019-02-21T05:04:25.694Z,22.73
2019-02-21T05:06:56.406Z,23.10
2019-02-21T05:09:27.312Z,24.30
2019-02-21T05:11:59.002Z,24.70
2019-02-21T05:14:29.294Z,24.83
2019-02-21T05:17:00.767Z,25.50
2019-02-21T05:19:31.021Z,25.53
2019-02-21T05:22:01.742Z,25.43
2019-02-21T05:24:32.238Z,27.40
2019-02-21T05:27:08.344Z,28.53
2019-02-21T05:29:39.989Z,27.60
2019-02-21T05:32:27.958Z,27.60
2019-02-21T05:35:13.466Z,28.73
2019-02-21T05:38:08.741Z,28.57
2019-02-21T05:40:58.147Z,28.50
2019-02-21T05:43:53.849Z,28.10
2019-02-21T05:46:33.904Z,28.57
2019-02-21T05:49:29.574Z,28.63
2019-02-21T05:52:15.914Z,28.67
2019-02-21T05:54:51.851Z,27.30
2019-02-21T05:57:41.126Z,27.73
2019-02-21T06:00:26.133Z,28.50
2019-02-21T06:03:08.002Z,28.23
2019-02-21T06:06:03.415Z,28.30
2019-02-21T06:08:55.505Z,29.00
2019-02-21T06:11:51.124Z,28.40
2019-02-21T06:14:55.827Z,28.87
2019-02-21T06:17:53.556Z,28.93
2019-02-21T06:20:45.522Z,29.80
2019-02-21T06:23:39.363Z,30.37
2019-02-21T06:26:14.438Z,29.67
2019-02-21T06:28:50.292Z,30.03
2019-02-21T06:31:22.291Z,31.67
2019-02-21T06:33:52.688Z,32.23
2019-02-21T06:36:22.937Z,30.60
2019-02-21T06:38:53.510Z,31.47
2019-02-21T06:41:23.857Z,33.17
2019-02-21T06:43:56.767Z,32.87
2019-02-21T06:46:26.677Z,31.73
2019-02-21T06:48:57.115Z,33.00
2019-02-21T06:51:27.471Z,33.70
2019-02-21T06:53:57.920Z,34.40
2019-02-21T06:56:28.206Z,34.40
2019-02-21T06:58:58.923Z,34.20
2019-02-21T07:01:29.587Z,35.90
2019-02-21T07:04:01.915Z,35.97
2019-02-21T07:06:32.600Z,35.03
2019-02-21T07:09:04.170Z,35.90
2019-02-21T07:11:34.881Z,37.23
2019-02-21T07:14:05.161Z,36.57
2019-02-21T07:16:37.353Z,37.27
2019-02-21T07:19:07.771Z,36.20
2019-02-21T07:21:38.051Z,37.97
2019-02-21T07:24:08.863Z,38.57
2019-02-21T07:26:39.089Z,38.33
2019-02-21T07:29:09.346Z,39.57
2019-02-21T07:31:41.029Z,39.93
2019-02-21T07:34:11.456Z,39.67
2019-02-21T07:36:41.797Z,40.43
2019-02-21T07:39:17.204Z,41.03
2019-02-21T07:41:44.071Z,39.80
2019-02-21T07:44:14.298Z,40.83
2019-02-21T07:46:46.357Z,39.70
2019-02-21T07:49:16.665Z,40.30
2019-02-21T07:51:47.189Z,40.63
2019-02-21T07:54:17.486Z,39.60
2019-02-21T07:56:47.790Z,39.10
2019-02-21T07:59:18.210Z,41.80
2019-02-21T08:01:48.475Z,42.13
2019-02-21T08:04:19.128Z,39.90
2019-02-21T08:06:49.482Z,38.30
2019-02-21T08:09:19.811Z,37.83
2019-02-21T08:11:50.188Z,39.03
2019-02-21T08:14:20.458Z,38.63
2019-02-21T08:16:51.447Z,38.23
2019-02-21T08:19:21.713Z,37.30
2019-02-21T08:21:54.240Z,38.17
2019-02-21T08:24:24.527Z,36.80
2019-02-21T08:26:55.129Z,36.57
2019-02-21T08:29:25.395Z,36.73
2019-02-21T08:31:57.470Z,38.07
2019-02-21T08:34:32.619Z,36.30
2019-02-21T08:37:03.387Z,37.07
2019-02-21T08:39:33.547Z,34.83
2019-02-21T08:42:04.204Z,36.13
2019-02-21T08:44:34.452Z,36.33
2019-02-21T08:47:05.417Z,36.53
2019-02-21T08:49:35.657Z,36.20
2019-02-21T08:52:06.241Z,36.17
2019-02-21T08:54:36.639Z,37.13
2019-02-21T08:57:07.012Z,36.53
2019-02-21T08:59:38.223Z,37.10
2019-02-21T09:02:09.591Z,36.30
2019-02-21T09:04:39.857Z,35.63
2019-02-21T09:07:10.571Z,36.73
2019-02-21T09:09:40.855Z,36.40
2019-02-21T09:12:12.031Z,36.13
2019-02-21T09:14:42.265Z,35.57
2019-02-21T09:17:13.078Z,34.80
2019-02-21T09:19:43.319Z,34.70
2019-02-21T09:22:13.630Z,34.37
2019-02-21T09:24:44.319Z,34.47
2019-02-21T09:27:14.585Z,34.50
2019-02-21T09:29:45.154Z,33.50
2019-02-21T09:32:17.060Z,33.17
2019-02-21T09:34:50.224Z,34.33
2019-02-21T09:37:19.603Z,34.97
2019-02-21T09:39:50.155Z,34.40
2019-02-21T09:42:21.239Z,34.17
2019-02-21T09:44:51.436Z,35.50
2019-02-21T09:47:21.900Z,37.00
2019-02-21T09:49:52.180Z,38.23
2019-02-21T09:52:22.519Z,37.13
2019-02-21T09:54:52.999Z,37.50
2019-02-21T09:57:23.229Z,37.57
2019-02-21T09:59:53.494Z,38.43
2019-02-21T10:02:24.154Z,37.80
2019-02-21T10:05:04.455Z,38.57
2019-02-21T10:07:26.669Z,39.83
2019-02-21T10:09:56.958Z,38.90
2019-02-21T10:12:27.810Z,39.43
2019-02-21T10:14:58.100Z,38.70
2019-02-21T10:17:29.151Z,39.33
2019-02-21T10:19:59.426Z,40.07
2019-02-21T10:22:29.970Z,38.43
2019-02-21T10:25:00.766Z,38.53
2019-02-21T10:27:32.446Z,39.87
2019-02-21T10:30:02.712Z,40.07
2019-02-21T10:32:33.878Z,39.57
2019-02-21T10:35:04.342Z,40.17
2019-02-21T10:37:34.651Z,40.70
2019-02-21T10:40:05.038Z,40.90
2019-02-21T10:42:36.614Z,40.30
2019-02-21T10:45:09.532Z,41.13
2019-02-21T10:47:40.428Z,38.77
2019-02-21T10:50:14.240Z,40.00
2019-02-21T10:52:45.987Z,40.87
2019-02-21T10:55:17.994Z,39.73
2019-02-21T10:57:49.000Z,39.53
2019-02-21T11:00:21.930Z,41.60
2019-02-21T11:02:52.508Z,39.97
2019-02-21T11:05:22.761Z,39.93
2019-02-21T11:07:53.390Z,37.47
2019-02-21T11:10:25.412Z,37.73
2019-02-21T11:12:56.175Z,35.50
2019-02-21T11:15:26.571Z,36.90
2019-02-21T11:17:58.862Z,37.30
2019-02-21T11:20:29.113Z,37.93
2019-02-21T11:23:01.706Z,35.23
2019-02-21T11:25:32.072Z,36.70
2019-02-21T11:28:03.950Z,37.63
2019-02-21T11:30:34.319Z,36.17
2019-02-21T11:33:05.202Z,33.50
2019-02-21T11:35:35.514Z,35.97
2019-02-21T11:38:06.373Z,34.57
2019-02-21T11:40:36.833Z,35.73
2019-02-21T11:43:07.433Z,35.20
2019-02-21T11:45:38.038Z,34.87
2019-02-21T11:48:09.460Z,32.10
2019-02-21T11:50:39.868Z,33.77
2019-02-21T11:53:10.474Z,33.97
2019-02-21T11:55:41.467Z,35.67
2019-02-21T11:58:12.182Z,34.57
2019-02-21T12:00:42.709Z,34.63
2019-02-21T12:03:13.231Z,32.90
2019-02-21T12:05:43.652Z,33.53
2019-02-21T12:08:14.607Z,32.37
2019-02-21T12:10:44.913Z,32.27
2019-02-21T12:13:15.669Z,29.00
2019-02-21T12:15:47.107Z,31.90
2019-02-21T12:18:18.252Z,29.67
2019-02-21T12:20:48.483Z,30.63
2019-02-21T12:23:19.037Z,30.60
2019-02-21T12:25:49.271Z,31.13
2019-02-21T12:28:20.034Z,27.93
2019-02-21T12:30:50.277Z,28.10
2019-02-21T12:33:20.710Z,28.57
2019-02-21T12:35:51.311Z,29.00
2019-02-21T12:38:22.153Z,26.83
2019-02-21T12:40:52.684Z,29.20
2019-02-21T12:43:22.863Z,28.07
2019-02-21T12:46:00.051Z,26.83
2019-02-21T12:48:31.079Z,29.43
2019-02-21T12:51:01.587Z,28.70
2019-02-21T12:53:31.851Z,28.33
2019-02-21T12:56:03.528Z,29.37
2019-02-21T12:58:33.927Z,26.93
2019-02-21T13:01:04.622Z,25.23
2019-02-21T13:03:37.693Z,25.07
2019-02-21T13:06:09.659Z,26.30
2019-02-21T13:08:40.272Z,25.90
2019-02-21T13:11:11.336Z,27.53
2019-02-21T13:13:41.671Z,25.03
2019-02-21T13:16:11.979Z,25.43
2019-02-21T13:18:43.201Z,24.43
2019-02-21T13:21:14.637Z,26.47
2019-02-21T13:23:44.877Z,25.73
2019-02-21T13:26:15.738Z,24.60
2019-02-21T13:28:45.950Z,25.07
2019-02-21T13:31:16.209Z,25.47
2019-02-21T13:33:46.703Z,24.93
2019-02-21T13:36:16.971Z,24.10
2019-02-21T13:38:47.194Z,22.13
2019-02-21T13:41:17.500Z,23.83
2019-02-21T13:43:47.810Z,22.03
2019-02-21T13:46:18.134Z,22.23
2019-02-21T13:48:49.245Z,21.80
2019-02-21T13:51:19.459Z,23.23
2019-02-21T13:53:52.212Z,22.70
2019-02-21T13:56:22.783Z,22.83
2019-02-21T13:58:53.005Z,22.30
2019-02-21T14:01:23.452Z,19.37
2019-02-21T14:03:53.704Z,19.13
2019-02-21T14:06:24.006Z,15.30
2019-02-21T14:08:54.286Z,17.90
2019-02-21T14:11:24.828Z,16.47
2019-02-21T14:13:55.100Z,16.60
2019-02-21T14:16:25.361Z,16.20
2019-02-21T14:18:56.227Z,17.73
2019-02-21T14:21:26.504Z,17.20
2019-02-21T14:23:56.675Z,17.77
2019-02-21T14:26:28.909Z,15.40
2019-02-21T14:28:59.465Z,16.83
2019-02-21T14:31:29.754Z,16.87
2019-02-21T14:34:00.249Z,17.10
2019-02-21T14:36:30.507Z,15.63
2019-02-21T14:39:00.968Z,15.77
2019-02-21T14:41:33.133Z,16.27
2019-02-21T14:44:03.424Z,16.97
2019-02-21T14:46:33.710Z,16.07
2019-02-21T14:49:05.051Z,16.90
2019-02-21T14:51:35.406Z,16.87
2019-02-21T14:54:05.688Z,16.33
2019-02-21T14:56:36.926Z,15.83
2019-02-21T14:59:07.953Z,14.93
2019-02-21T15:01:38.528Z,16.70
2019-02-21T15:04:08.830Z,17.20
2019-02-21T15:06:39.262Z,18.43
2019-02-21T15:09:09.837Z,17.53
2019-02-21T15:11:40.442Z,19.50
2019-02-21T15:14:10.748Z,20.27
2019-02-21T15:16:40.908Z,20.07
2019-02-21T15:19:11.677Z,20.27
2019-02-21T15:21:41.920Z,20.97
2019-02-21T15:24:13.219Z,22.80
2019-02-21T15:26:43.778Z,23.43
2019-02-21T15:29:14.430Z,24.50
2019-02-21T15:31:44.663Z,24.33
2019-02-21T15:34:15.169Z,26.00
2019-02-21T15:36:46.672Z,24.07
2019-02-21T15:39:17.177Z,23.83
2019-02-21T15:41:47.372Z,23.67
2019-02-21T15:44:18.105Z,20.77
2019-02-21T15:46:48.419Z,22.70
2019-02-21T15:49:18.733Z,22.73
2019-02-21T15:51:49.189Z,22.73
2019-02-21T15:54:19.461Z,20.97
2019-02-21T15:56:50.851Z,23.20
2019-02-21T15:59:21.141Z,24.47
2019-02-21T16:01:52.298Z,25.23
2019-02-21T16:04:22.783Z,25.47
2019-02-21T16:06:53.313Z,25.17
2019-02-21T16:09:25.403Z,26.13
2019-02-21T16:11:55.753Z,26.67
2019-02-21T16:14:26.017Z,24.23
2019-02-21T16:16:56.288Z,25.13
2019-02-21T16:19:27.189Z,24.70
2019-02-21T16:21:57.422Z,26.13
2019-02-21T16:24:28.575Z,25.50
2019-02-21T16:26:58.996Z,27.10
2019-02-21T16:29:29.881Z,27.80
2019-02-21T16:32:00.388Z,26.83
2019-02-21T16:34:33.034Z,27.80
2019-02-21T16:37:03.426Z,27.40
2019-02-21T16:39:33.978Z,27.03
2019-02-21T16:42:04.557Z,27.50
2019-02-21T16:44:35.389Z,25.70
2019-02-21T16:47:05.839Z,28.30
2019-02-21T16:49:37.192Z,28.27
2019-02-21T16:52:07.506Z,26.40
2019-02-21T16:54:38.258Z,29.07
2019-02-21T16:57:09.679Z,26.37
2019-02-21T16:59:43.282Z,27.07
2019-02-21T17:02:12.884Z,27.63
2019-02-21T17:04:43.778Z,20.13
2019-02-21T17:07:20.017Z,18.57
2019-02-21T17:09:46.653Z,16.83
2019-02-21T17:12:16.908Z,15.93
2019-02-21T17:14:48.580Z,14.90
2019-02-21T17:17:18.835Z,14.53
2019-02-21T17:19:49.978Z,13.57
2019-02-21T17:22:21.531Z,13.70
2019-02-21T17:24:53.151Z,14.30
2019-02-21T17:27:24.656Z,13.83
2019-02-21T17:29:55.173Z,14.40
2019-02-21T17:32:25.427Z,15.73
2019-02-21T17:34:55.754Z,15.20
2019-02-21T17:37:26.162Z,14.43
2019-02-21T17:39:56.438Z,14.17
2019-02-21T17:42:26.902Z,13.93
2019-02-21T17:44:57.170Z,14.80
2019-02-21T17:47:28.614Z,15.37
2019-02-21T17:49:59.818Z,15.90
2019-02-21T17:52:30.062Z,16.93
2019-02-21T17:55:01.582Z,17.13
2019-02-21T17:57:33.296Z,17.83
2019-02-21T18:00:03.584Z,18.43
2019-02-21T18:02:34.653Z,17.90
2019-02-21T18:05:05.102Z,17.93
2019-02-21T18:07:36.632Z,17.73
2019-02-21T18:10:09.238Z,18.73
2019-02-21T18:12:39.810Z,19.03
2019-02-21T18:15:10.595Z,19.07
2019-02-21T18:17:41.036Z,19.60
2019-02-21T18:20:12.230Z,20.17
2019-02-21T18:22:42.464Z,19.50
2019-02-21T18:25:15.862Z,20.87
2019-02-21T18:27:46.622Z,19.70
2019-02-21T18:30:17.362Z,22.07
2019-02-21T18:32:47.781Z,21.57
2019-02-21T18:35:18.487Z,21.77
2019-02-21T18:37:48.764Z,22.87
2019-02-21T18:40:20.725Z,23.30
2019-02-21T18:42:51.797Z,25.30
2019-02-21T18:45:22.314Z,26.23
2019-02-21T18:47:52.809Z,26.20
2019-02-21T18:50:23.793Z,27.07
2019-02-21T18:52:54.605Z,27.87
2019-02-21T18:55:24.913Z,27.47
2019-02-21T18:57:55.262Z,27.77
2019-02-21T19:00:25.937Z,29.17
2019-02-21T19:02:56.174Z,27.87
2019-02-21T19:05:35.309Z,27.63
2019-02-21T19:08:05.137Z,27.37
2019-02-21T19:10:30.555Z,26.13
2019-02-21T19:13:01.313Z,27.27
2019-02-21T19:15:32.457Z,26.27
2019-02-21T19:18:02.968Z,26.23
2019-02-21T19:20:33.261Z,27.40
2019-02-21T19:23:05.170Z,27.20
2019-02-21T19:25:35.721Z,26.97
2019-02-21T19:28:06.541Z,26.23
2019-02-21T19:30:40.263Z,27.50
2019-02-21T19:33:10.749Z,28.33
2019-02-21T19:35:41.431Z,27.53
2019-02-21T19:38:11.805Z,26.00
2019-02-21T19:40:42.184Z,26.33
2019-02-21T19:43:12.600Z,24.77
2019-02-21T19:45:43.346Z,24.47
2019-02-21T19:48:16.070Z,25.97
2019-02-21T19:50:46.840Z,25.33
2019-02-21T19:53:17.396Z,24.73
2019-02-21T19:55:47.836Z,25.00
2019-02-21T19:58:18.527Z,22.43
2019-02-21T20:00:49.018Z,22.37
2019-02-21T20:03:20.643Z,23.30
2019-02-21T20:05:51.119Z,24.20
2019-02-21T20:08:21.917Z,24.93
2019-02-21T20:10:52.560Z,25.27
2019-02-21T20:13:23.385Z,22.83
2019-02-21T20:15:53.947Z,24.70
2019-02-21T20:18:25.881Z,26.13
2019-02-21T20:20:56.416Z,26.23
2019-02-21T20:23:27.711Z,27.70
2019-02-21T20:25:58.645Z,28.47
2019-02-21T20:28:30.027Z,28.90
2019-02-21T20:31:00.586Z,27.33
2019-02-21T20:33:31.240Z,26.80
2019-02-21T20:36:01.964Z,22.03
2019-02-21T20:38:32.554Z,19.20
2019-02-21T20:41:03.359Z,19.80
2019-02-21T20:43:33.909Z,18.13
2019-02-21T20:46:05.419Z,18.47
2019-02-21T20:48:36.184Z,18.70
2019-02-21T20:51:06.797Z,16.77
2019-02-21T20:53:37.090Z,16.47
2019-02-21T20:56:07.415Z,17.83
2019-02-21T20:58:37.921Z,19.10
2019-02-21T21:01:08.795Z,18.80
2019-02-21T21:03:39.167Z,19.80
2019-02-21T21:06:09.530Z,19.83
2019-02-21T21:08:43.121Z,21.00
2019-02-21T21:11:12.015Z,18.87
2019-02-21T21:13:44.181Z,17.37
2019-02-21T21:16:14.846Z,15.20
2019-02-21T21:18:45.312Z,13.60
2019-02-21T21:21:15.734Z,13.47
2019-02-21T21:23:46.082Z,12.60
2019-02-21T21:26:16.400Z,14.13
2019-02-21T21:28:46.656Z,12.70
2019-02-21T21:31:17.123Z,12.73
2019-02-21T21:33:47.564Z,13.30
2019-02-21T21:36:17.946Z,11.73
2019-02-21T21:38:53.994Z,9.67
2019-02-21T21:41:20.606Z,7.93
2019-02-21T21:43:51.206Z,8.33
2019-02-21T21:46:21.898Z,7.23
2019-02-21T21:48:52.315Z,7.03
2019-02-21T21:51:22.733Z,6.87
2019-02-21T21:53:53.427Z,5.97
2019-02-21T21:56:24.186Z,6.23
2019-02-21T21:58:55.072Z,5.87
2019-02-21T22:01:25.396Z,5.80
2019-02-21T22:03:56.084Z,6.63
2019-02-21T22:06:26.396Z,5.93
2019-02-21T22:09:04.686Z,5.47
2019-02-21T22:11:32.788Z,6.33
2019-02-21T22:14:03.779Z,6.47
2019-02-21T22:16:34.657Z,7.30
2019-02-21T22:19:05.275Z,7.73
2019-02-21T22:21:35.968Z,7.90
2019-02-21T22:24:08.504Z,6.93
2019-02-21T22:26:39.332Z,7.53
2019-02-21T22:29:10.222Z,8.13
2019-02-21T22:31:41.466Z,8.70
2019-02-21T22:34:12.465Z,8.37
2019-02-21T22:36:44.196Z,7.83
2019-02-21T22:39:16.614Z,7.77
2019-02-21T22:41:47.438Z,7.40
2019-02-21T22:44:18.644Z,7.80
2019-02-21T22:46:49.267Z,7.73
2019-02-21T22:49:20.293Z,8.30
2019-02-21T22:51:51.415Z,7.53
2019-02-21T22:54:22.362Z,7.87
2019-02-21T22:56:53.016Z,7.37
2019-02-21T22:59:24.639Z,8.60
2019-02-21T23:01:56.307Z,7.63
2019-02-21T23:05:20.362Z,7.10
2019-02-21T23:08:22.071Z,5.93
2019-02-21T23:10:53.238Z,5.77
2019-02-21T23:13:24.532Z,5.47
2019-02-21T23:15:55.814Z,6.03
2019-02-21T23:18:26.304Z,5.63
2019-02-21T23:20:56.841Z,5.90
2019-02-21T23:23:28.951Z,4.30
2019-02-21T23:26:00.363Z,5.20
2019-02-21T23:28:31.387Z,4.13
2019-02-21T23:31:02.343Z,3.90
2019-02-21T23:33:34.795Z,4.07
2019-02-21T23:36:05.660Z,3.30
2019-02-21T23:38:36.387Z,3.80
2019-02-21T23:41:07.113Z,3.07
2019-02-21T23:43:38.014Z,3.40
2019-02-21T23:46:09.126Z,3.90
2019-02-21T23:48:40.094Z,3.60
2019-02-21T23:51:10.599Z,4.10
2019-02-21T23:53:41.923Z,4.20
2019-02-21T23:56:12.550Z,4.17
2019-02-21T23:58:43.354Z,4.33
